sensor_id;sensor_type;location;lat;lon;timestamp;pressure;altitude;pressure_sealevel;temperature;humidity
20145;BME280;10233;50.814;6.590;2022-08-03T00:00:55;100177.53;;;20.13;100.00
20145;BME280;10233;50.814;6.590;2022-08-03T00:01:56;100185.06;;;20.16;100.00
20145;BME280;10233;50.814;6.590;2022-08-03T00:02:56;100182.66;;;20.14;100.00
20145;BME280;10233;50.814;6.590;2022-08-03T00:03:57;100185.88;;;20.16;100.00
20145;BME280;10233;50.814;6.590;2022-08-03T00:04:57;100185.09;;;20.21;100.00
20145;BME280;10233;50.814;6.590;2022-08-03T00:05:58;100187.00;;;20.30;100.00
20145;BME280;10233;50.814;6.590;2022-08-03T00:06:58;100182.16;;;20.42;100.00
20145;BME280;10233;50.814;6.590;2022-08-03T00:08:00;100185.09;;;20.26;100.00
20145;BME280;10233;50.814;6.590;2022-08-03T00:09:01;100192.41;;;20.25;100.00
20145;BME280;10233;50.814;6.590;2022-08-03T00:10:02;100187.75;;;20.11;100.00
20145;BME280;10233;50.814;6.590;2022-08-03T00:11:03;100184.72;;;19.97;100.00
20145;BME280;10233;50.814;6.590;2022-08-03T00:12:06;100189.00;;;19.93;100.00
20145;BME280;10233;50.814;6.590;2022-08-03T00:13:07;100187.88;;;19.79;100.00
20145;BME280;10233;50.814;6.590;2022-08-03T00:14:07;100189.50;;;19.80;100.00
20145;BME280;10233;50.814;6.590;2022-08-03T00:15:08;100192.78;;;19.87;100.00
20145;BME280;10233;50.814;6.590;2022-08-03T00:16:09;100192.78;;;19.92;100.00
20145;BME280;10233;50.814;6.590;2022-08-03T00:17:10;100185.78;;;19.91;100.00
20145;BME280;10233;50.814;6.590;2022-08-03T00:18:10;100185.22;;;19.89;100.00
20145;BME280;10233;50.814;6.590;2022-08-03T00:19:11;100181.66;;;19.74;100.00
20145;BME280;10233;50.814;6.590;2022-08-03T00:20:11;100180.59;;;19.80;100.00
20145;BME280;10233;50.814;6.590;2022-08-03T00:21:12;100183.31;;;19.85;100.00
20145;BME280;10233;50.814;6.590;2022-08-03T00:22:12;100178.75;;;19.85;100.00
20145;BME280;10233;50.814;6.590;2022-08-03T00:23:13;100184.13;;;19.85;100.00
20145;BME280;10233;50.814;6.590;2022-08-03T00:24:13;100178.44;;;19.82;100.00
20145;BME280;10233;50.814;6.590;2022-08-03T00:25:14;100178.72;;;19.80;100.00
20145;BME280;10233;50.814;6.590;2022-08-03T00:26:14;100179.25;;;19.82;100.00
20145;BME280;10233;50.814;6.590;2022-08-03T00:27:15;100179.50;;;19.76;100.00
20145;BME280;10233;50.814;6.590;2022-08-03T00:28:15;100180.56;;;19.75;100.00
20145;BME280;10233;50.814;6.590;2022-08-03T00:29:16;100177.66;;;19.86;100.00
20145;BME280;10233;50.814;6.590;2022-08-03T00:30:17;100174.06;;;19.71;100.00
20145;BME280;10233;50.814;6.590;2022-08-03T00:31:17;100172.19;;;19.71;100.00
20145;BME280;10233;50.814;6.590;2022-08-03T00:32:18;100173.56;;;19.74;100.00
20145;BME280;10233;50.814;6.590;2022-08-03T00:33:18;100180.28;;;19.71;100.00
20145;BME280;10233;50.814;6.590;2022-08-03T00:34:19;100178.69;;;19.75;100.00
20145;BME280;10233;50.814;6.590;2022-08-03T00:35:19;100173.00;;;19.72;100.00
20145;BME280;10233;50.814;6.590;2022-08-03T00:36:20;100177.03;;;19.69;100.00
20145;BME280;10233;50.814;6.590;2022-08-03T00:37:20;100176.47;;;19.62;100.00
20145;BME280;10233;50.814;6.590;2022-08-03T00:38:21;100171.59;;;19.59;100.00
20145;BME280;10233;50.814;6.590;2022-08-03T00:39:21;100175.38;;;19.63;100.00
20145;BME280;10233;50.814;6.590;2022-08-03T00:40:22;100173.22;;;19.65;100.00
20145;BME280;10233;50.814;6.590;2022-08-03T00:41:23;100170.28;;;19.67;100.00
20145;BME280;10233;50.814;6.590;2022-08-03T00:42:23;100167.31;;;19.68;100.00
20145;BME280;10233;50.814;6.590;2022-08-03T00:43:24;100168.41;;;19.72;100.00
20145;BME280;10233;50.814;6.590;2022-08-03T00:44:25;100167.63;;;19.82;100.00
20145;BME280;10233;50.814;6.590;2022-08-03T00:45:32;100166.25;;;19.74;100.00
20145;BME280;10233;50.814;6.590;2022-08-03T00:46:32;100174.88;;;19.66;100.00
20145;BME280;10233;50.814;6.590;2022-08-03T00:47:33;100167.03;;;19.65;100.00
20145;BME280;10233;50.814;6.590;2022-08-03T00:48:33;100162.34;;;19.50;100.00
20145;BME280;10233;50.814;6.590;2022-08-03T00:49:34;100163.44;;;19.49;100.00
20145;BME280;10233;50.814;6.590;2022-08-03T00:50:38;100167.66;;;19.35;100.00
20145;BME280;10233;50.814;6.590;2022-08-03T00:51:38;100177.06;;;19.28;100.00
20145;BME280;10233;50.814;6.590;2022-08-03T00:52:39;100167.66;;;19.35;100.00
20145;BME280;10233;50.814;6.590;2022-08-03T00:53:40;100171.56;;;19.18;100.00
20145;BME280;10233;50.814;6.590;2022-08-03T00:54:40;100166.47;;;19.21;100.00
20145;BME280;10233;50.814;6.590;2022-08-03T00:55:41;100165.94;;;19.19;100.00
20145;BME280;10233;50.814;6.590;2022-08-03T00:56:42;100167.50;;;19.15;100.00
20145;BME280;10233;50.814;6.590;2022-08-03T00:57:43;100168.22;;;19.01;100.00
20145;BME280;10233;50.814;6.590;2022-08-03T00:58:45;100171.28;;;19.14;100.00
20145;BME280;10233;50.814;6.590;2022-08-03T00:59:46;100165.38;;;19.17;100.00
20145;BME280;10233;50.814;6.590;2022-08-03T01:00:46;100166.97;;;19.13;100.00
20145;BME280;10233;50.814;6.590;2022-08-03T01:01:47;100170.44;;;19.09;100.00
20145;BME280;10233;50.814;6.590;2022-08-03T01:02:47;100167.22;;;19.12;100.00
20145;BME280;10233;50.814;6.590;2022-08-03T01:03:48;100164.25;;;19.08;100.00
20145;BME280;10233;50.814;6.590;2022-08-03T01:04:48;100168.25;;;19.06;100.00
20145;BME280;10233;50.814;6.590;2022-08-03T01:05:56;100159.69;;;19.14;100.00
20145;BME280;10233;50.814;6.590;2022-08-03T01:07:05;100160.00;;;19.17;100.00
20145;BME280;10233;50.814;6.590;2022-08-03T01:08:31;100169.16;;;19.21;100.00
20145;BME280;10233;50.814;6.590;2022-08-03T01:09:59;100168.34;;;19.16;100.00
20145;BME280;10233;50.814;6.590;2022-08-03T01:11:37;100162.09;;;19.10;100.00
20145;BME280;10233;50.814;6.590;2022-08-03T01:15:07;100165.47;;;19.27;100.00
20145;BME280;10233;50.814;6.590;2022-08-03T01:20:33;100154.47;;;19.34;100.00
20145;BME280;10233;50.814;6.590;2022-08-03T01:27:28;100153.53;;;19.18;100.00
20145;BME280;10233;50.814;6.590;2022-08-03T01:30:13;100155.53;;;19.01;100.00
20145;BME280;10233;50.814;6.590;2022-08-03T01:31:18;100157.19;;;19.02;100.00
20145;BME280;10233;50.814;6.590;2022-08-03T01:32:27;100161.22;;;19.00;100.00
20145;BME280;10233;50.814;6.590;2022-08-03T01:33:36;100158.81;;;19.03;100.00
20145;BME280;10233;50.814;6.590;2022-08-03T01:34:44;100155.25;;;18.98;100.00
20145;BME280;10233;50.814;6.590;2022-08-03T01:35:49;100157.16;;;18.97;100.00
20145;BME280;10233;50.814;6.590;2022-08-03T01:36:51;100162.88;;;19.06;100.00
20145;BME280;10233;50.814;6.590;2022-08-03T01:38:03;100163.59;;;18.96;100.00
20145;BME280;10233;50.814;6.590;2022-08-03T01:39:06;100159.09;;;19.07;100.00
20145;BME280;10233;50.814;6.590;2022-08-03T01:40:11;100160.34;;;18.94;100.00
20145;BME280;10233;50.814;6.590;2022-08-03T01:41:17;100162.84;;;19.01;100.00
20145;BME280;10233;50.814;6.590;2022-08-03T01:42:20;100156.56;;;18.90;100.00
20145;BME280;10233;50.814;6.590;2022-08-03T01:43:25;100157.69;;;18.99;100.00
20145;BME280;10233;50.814;6.590;2022-08-03T01:44:30;100157.13;;;18.92;100.00
20145;BME280;10233;50.814;6.590;2022-08-03T01:45:33;100154.22;;;19.04;100.00
20145;BME280;10233;50.814;6.590;2022-08-03T01:46:36;100154.19;;;18.99;100.00
20145;BME280;10233;50.814;6.590;2022-08-03T01:47:38;100155.94;;;19.15;100.00
20145;BME280;10233;50.814;6.590;2022-08-03T01:48:41;100152.44;;;19.19;100.00
20145;BME280;10233;50.814;6.590;2022-08-03T01:49:43;100154.56;;;19.12;100.00
20145;BME280;10233;50.814;6.590;2022-08-03T01:50:45;100145.44;;;19.18;100.00
20145;BME280;10233;50.814;6.590;2022-08-03T01:51:47;100145.44;;;19.18;100.00
20145;BME280;10233;50.814;6.590;2022-08-03T01:52:49;100143.78;;;19.12;100.00
20145;BME280;10233;50.814;6.590;2022-08-03T01:53:52;100146.69;;;19.06;100.00
20145;BME280;10233;50.814;6.590;2022-08-03T01:54:54;100140.56;;;19.15;100.00
20145;BME280;10233;50.814;6.590;2022-08-03T01:55:56;100153.78;;;19.17;100.00
20145;BME280;10233;50.814;6.590;2022-08-03T01:56:58;100143.50;;;19.14;100.00
20145;BME280;10233;50.814;6.590;2022-08-03T01:58:01;100148.84;;;19.09;100.00
20145;BME280;10233;50.814;6.590;2022-08-03T01:59:02;100151.31;;;19.10;100.00
20145;BME280;10233;50.814;6.590;2022-08-03T02:00:04;100148.31;;;19.07;100.00
20145;BME280;10233;50.814;6.590;2022-08-03T02:01:12;100142.63;;;19.03;100.00
20145;BME280;10233;50.814;6.590;2022-08-03T02:02:15;100138.72;;;19.21;100.00
20145;BME280;10233;50.814;6.590;2022-08-03T02:03:18;100141.72;;;19.24;100.00
20145;BME280;10233;50.814;6.590;2022-08-03T02:04:20;100134.66;;;19.18;100.00
20145;BME280;10233;50.814;6.590;2022-08-03T02:05:23;100135.69;;;19.12;100.00
20145;BME280;10233;50.814;6.590;2022-08-03T02:06:24;100135.38;;;19.09;100.00
20145;BME280;10233;50.814;6.590;2022-08-03T02:07:26;100141.56;;;19.04;100.00
20145;BME280;10233;50.814;6.590;2022-08-03T02:08:28;100140.69;;;18.99;100.00
20145;BME280;10233;50.814;6.590;2022-08-03T02:09:30;100147.63;;;18.90;100.00
20145;BME280;10233;50.814;6.590;2022-08-03T02:10:32;100144.06;;;18.79;100.00
20145;BME280;10233;50.814;6.590;2022-08-03T02:11:35;100141.34;;;18.74;100.00
20145;BME280;10233;50.814;6.590;2022-08-03T02:12:37;100143.50;;;18.77;100.00
20145;BME280;10233;50.814;6.590;2022-08-03T02:13:39;100142.72;;;18.77;100.00
20145;BME280;10233;50.814;6.590;2022-08-03T02:14:42;100139.19;;;18.76;100.00
20145;BME280;10233;50.814;6.590;2022-08-03T02:15:44;100143.44;;;18.67;100.00
20145;BME280;10233;50.814;6.590;2022-08-03T02:16:46;100140.59;;;18.52;100.00
20145;BME280;10233;50.814;6.590;2022-08-03T02:17:49;100140.09;;;18.55;100.00
20145;BME280;10233;50.814;6.590;2022-08-03T02:18:50;100144.66;;;18.55;100.00
20145;BME280;10233;50.814;6.590;2022-08-03T02:19:52;100141.94;;;18.50;100.00
20145;BME280;10233;50.814;6.590;2022-08-03T02:20:54;100139.75;;;18.47;100.00
20145;BME280;10233;50.814;6.590;2022-08-03T02:21:56;100147.75;;;18.37;100.00
20145;BME280;10233;50.814;6.590;2022-08-03T02:22:57;100144.78;;;18.38;100.00
20145;BME280;10233;50.814;6.590;2022-08-03T02:23:58;100137.91;;;18.52;100.00
20145;BME280;10233;50.814;6.590;2022-08-03T02:24:58;100138.09;;;18.46;100.00
20145;BME280;10233;50.814;6.590;2022-08-03T02:26:01;100144.06;;;18.48;100.00
20145;BME280;10233;50.814;6.590;2022-08-03T02:27:05;100136.50;;;18.45;100.00
20145;BME280;10233;50.814;6.590;2022-08-03T02:28:10;100147.56;;;18.48;100.00
20145;BME280;10233;50.814;6.590;2022-08-03T02:29:19;100141.59;;;18.41;100.00
20145;BME280;10233;50.814;6.590;2022-08-03T02:30:24;100138.75;;;18.31;100.00
20145;BME280;10233;50.814;6.590;2022-08-03T02:31:29;100135.59;;;18.34;100.00
20145;BME280;10233;50.814;6.590;2022-08-03T02:32:35;100138.22;;;18.29;100.00
20145;BME280;10233;50.814;6.590;2022-08-03T02:33:40;100140.63;;;18.31;100.00
20145;BME280;10233;50.814;6.590;2022-08-03T02:34:45;100138.75;;;18.31;100.00
20145;BME280;10233;50.814;6.590;2022-08-03T02:35:48;100137.03;;;18.20;100.00
20145;BME280;10233;50.814;6.590;2022-08-03T02:36:50;100141.16;;;18.28;100.00
20145;BME280;10233;50.814;6.590;2022-08-03T02:37:57;100140.34;;;18.27;100.00
20145;BME280;10233;50.814;6.590;2022-08-03T02:38:59;100140.28;;;18.22;100.00
20145;BME280;10233;50.814;6.590;2022-08-03T02:40:03;100139.84;;;18.30;100.00
20145;BME280;10233;50.814;6.590;2022-08-03T02:41:08;100144.06;;;18.21;100.00
20145;BME280;10233;50.814;6.590;2022-08-03T02:42:14;100138.66;;;18.21;100.00
20145;BME280;10233;50.814;6.590;2022-08-03T02:43:19;100137.50;;;18.12;100.00
20145;BME280;10233;50.814;6.590;2022-08-03T02:44:24;100137.00;;;18.15;100.00
20145;BME280;10233;50.814;6.590;2022-08-03T02:45:26;100142.97;;;18.22;100.00
20145;BME280;10233;50.814;6.590;2022-08-03T02:46:32;100141.16;;;18.28;100.00
20145;BME280;10233;50.814;6.590;2022-08-03T02:47:35;100141.66;;;18.25;100.00
20145;BME280;10233;50.814;6.590;2022-08-03T02:48:37;100143.31;;;18.31;100.00
20145;BME280;10233;50.814;6.590;2022-08-03T02:49:41;100137.78;;;18.16;100.00
20145;BME280;10233;50.814;6.590;2022-08-03T02:50:44;100144.00;;;18.16;100.00
20145;BME280;10233;50.814;6.590;2022-08-03T02:51:46;100143.81;;;18.23;100.00
20145;BME280;10233;50.814;6.590;2022-08-03T02:52:48;100140.03;;;18.24;100.00
20145;BME280;10233;50.814;6.590;2022-08-03T02:53:50;100143.31;;;18.31;100.00
20145;BME280;10233;50.814;6.590;2022-08-03T02:54:53;100139.25;;;18.28;100.00
20145;BME280;10233;50.814;6.590;2022-08-03T02:55:55;100132.84;;;18.29;100.00
20145;BME280;10233;50.814;6.590;2022-08-03T02:56:57;100144.16;;;18.31;100.00
20145;BME280;10233;50.814;6.590;2022-08-03T02:57:59;100141.00;;;18.34;100.00
20145;BME280;10233;50.814;6.590;2022-08-03T02:59:00;100137.22;;;18.35;100.00
20145;BME280;10233;50.814;6.590;2022-08-03T03:00:02;100137.72;;;18.32;100.00
20145;BME280;10233;50.814;6.590;2022-08-03T03:01:03;100135.66;;;18.39;100.00
20145;BME280;10233;50.814;6.590;2022-08-03T03:02:04;100131.25;;;18.33;100.00
20145;BME280;10233;50.814;6.590;2022-08-03T03:03:05;100133.28;;;18.21;100.00
20145;BME280;10233;50.814;6.590;2022-08-03T03:04:07;100135.44;;;18.19;100.00
20145;BME280;10233;50.814;6.590;2022-08-03T03:05:10;100136.38;;;18.08;100.00
20145;BME280;10233;50.814;6.590;2022-08-03T03:06:12;100129.16;;;18.14;100.00
20145;BME280;10233;50.814;6.590;2022-08-03T03:07:13;100130.25;;;18.13;100.00
20145;BME280;10233;50.814;6.590;2022-08-03T03:08:16;100130.34;;;17.96;100.00
20145;BME280;10233;50.814;6.590;2022-08-03T03:09:17;100129.84;;;18.04;100.00
20145;BME280;10233;50.814;6.590;2022-08-03T03:10:20;100132.00;;;18.02;100.00
20145;BME280;10233;50.814;6.590;2022-08-03T03:11:22;100136.94;;;18.10;100.00
20145;BME280;10233;50.814;6.590;2022-08-03T03:12:25;100133.13;;;18.06;100.00
20145;BME280;10233;50.814;6.590;2022-08-03T03:13:28;100139.25;;;18.02;100.00
20145;BME280;10233;50.814;6.590;2022-08-03T03:14:30;100135.19;;;17.99;100.00
20145;BME280;10233;50.814;6.590;2022-08-03T03:15:31;100133.88;;;18.02;100.00
20145;BME280;10233;50.814;6.590;2022-08-03T03:16:35;100129.63;;;18.06;100.00
20145;BME280;10233;50.814;6.590;2022-08-03T03:17:36;100133.19;;;18.11;100.00
20145;BME280;10233;50.814;6.590;2022-08-03T03:18:37;100133.69;;;18.08;100.00
20145;BME280;10233;50.814;6.590;2022-08-03T03:19:38;100140.19;;;18.12;100.00
20145;BME280;10233;50.814;6.590;2022-08-03T03:20:41;100128.41;;;18.18;100.00
20145;BME280;10233;50.814;6.590;2022-08-03T03:21:42;100133.72;;;18.13;100.00
20145;BME280;10233;50.814;6.590;2022-08-03T03:22:44;100139.63;;;18.10;100.00
20145;BME280;10233;50.814;6.590;2022-08-03T03:23:46;100141.72;;;18.30;100.00
20145;BME280;10233;50.814;6.590;2022-08-03T03:24:48;100143.94;;;18.33;100.00
20145;BME280;10233;50.814;6.590;2022-08-03T03:25:51;100144.97;;;18.32;100.00
20145;BME280;10233;50.814;6.590;2022-08-03T03:26:52;100146.44;;;18.39;100.00
20145;BME280;10233;50.814;6.590;2022-08-03T03:27:53;100144.78;;;18.38;100.00
20145;BME280;10233;50.814;6.590;2022-08-03T03:28:54;100146.94;;;18.36;100.00
20145;BME280;10233;50.814;6.590;2022-08-03T03:29:56;100144.09;;;18.26;100.00
20145;BME280;10233;50.814;6.590;2022-08-03T03:30:57;100141.25;;;18.33;100.00
20145;BME280;10233;50.814;6.590;2022-08-03T03:31:59;100140.28;;;18.22;100.00
20145;BME280;10233;50.814;6.590;2022-08-03T03:33:00;100135.19;;;18.26;100.00
20145;BME280;10233;50.814;6.590;2022-08-03T03:34:02;100139.25;;;18.28;100.00
20145;BME280;10233;50.814;6.590;2022-08-03T03:35:03;100134.66;;;18.24;100.00
20145;BME280;10233;50.814;6.590;2022-08-03T03:36:05;100135.16;;;18.21;100.00
20145;BME280;10233;50.814;6.590;2022-08-03T03:37:06;100140.59;;;18.26;100.00
20145;BME280;10233;50.814;6.590;2022-08-03T03:38:07;100133.72;;;18.35;100.00
20145;BME280;10233;50.814;6.590;2022-08-03T03:39:07;100141.38;;;18.48;100.00
20145;BME280;10233;50.814;6.590;2022-08-03T03:40:08;100134.41;;;18.52;100.00
20145;BME280;10233;50.814;6.590;2022-08-03T03:41:09;100133.09;;;18.54;100.00
20145;BME280;10233;50.814;6.590;2022-08-03T03:42:10;100131.56;;;18.63;100.00
20145;BME280;10233;50.814;6.590;2022-08-03T03:43:12;100129.38;;;18.60;100.00
20145;BME280;10233;50.814;6.590;2022-08-03T03:44:12;100132.09;;;18.65;100.00
20145;BME280;10233;50.814;6.590;2022-08-03T03:45:14;100140.53;;;18.74;100.00
20145;BME280;10233;50.814;6.590;2022-08-03T03:46:15;100135.00;;;18.59;100.00
20145;BME280;10233;50.814;6.590;2022-08-03T03:47:16;100143.66;;;18.61;100.00
20145;BME280;10233;50.814;6.590;2022-08-03T03:48:17;100135.25;;;18.57;100.00
20145;BME280;10233;50.814;6.590;2022-08-03T03:49:19;100135.00;;;18.59;100.00
20145;BME280;10233;50.814;6.590;2022-08-03T03:50:21;100133.69;;;18.61;100.00
20145;BME280;10233;50.814;6.590;2022-08-03T03:51:23;100132.94;;;18.66;100.00
20145;BME280;10233;50.814;6.590;2022-08-03T03:52:23;100139.09;;;18.66;100.00
20145;BME280;10233;50.814;6.590;2022-08-03T03:53:24;100142.34;;;18.63;100.00
20145;BME280;10233;50.814;6.590;2022-08-03T03:54:25;100144.25;;;18.68;100.00
20145;BME280;10233;50.814;6.590;2022-08-03T03:55:25;100135.34;;;18.67;100.00
20145;BME280;10233;50.814;6.590;2022-08-03T03:56:26;100145.06;;;18.68;100.00
20145;BME280;10233;50.814;6.590;2022-08-03T03:57:27;100137.78;;;18.69;100.00
20145;BME280;10233;50.814;6.590;2022-08-03T03:58:27;100139.19;;;18.76;100.00
20145;BME280;10233;50.814;6.590;2022-08-03T03:59:28;100139.53;;;18.85;100.00
20145;BME280;10233;50.814;6.590;2022-08-03T04:00:29;100140.88;;;18.87;100.00
20145;BME280;10233;50.814;6.590;2022-08-03T04:01:30;100138.72;;;18.84;100.00
20145;BME280;10233;50.814;6.590;2022-08-03T04:02:30;100144.38;;;18.83;100.00
20145;BME280;10233;50.814;6.590;2022-08-03T04:03:31;100147.91;;;18.88;100.00
20145;BME280;10233;50.814;6.590;2022-08-03T04:04:32;100141.72;;;18.88;100.00
20145;BME280;10233;50.814;6.590;2022-08-03T04:05:51;100141.16;;;18.86;100.00
20145;BME280;10233;50.814;6.590;2022-08-03T04:07:10;100150.09;;;18.91;100.00
20145;BME280;10233;50.814;6.590;2022-08-03T04:08:31;100143.66;;;18.92;100.00
20145;BME280;10233;50.814;6.590;2022-08-03T04:09:50;100143.16;;;19.00;100.00
20145;BME280;10233;50.814;6.590;2022-08-03T04:11:14;100143.97;;;19.01;100.00
20145;BME280;10233;50.814;6.590;2022-08-03T04:12:17;100145.34;;;19.03;100.00
20145;BME280;10233;50.814;6.590;2022-08-03T04:13:19;100141.56;;;19.04;100.00
20145;BME280;10233;50.814;6.590;2022-08-03T04:14:26;100137.53;;;19.07;100.00
20145;BME280;10233;50.814;6.590;2022-08-03T04:15:30;100140.78;;;19.09;100.00
20145;BME280;10233;50.814;6.590;2022-08-03T04:16:34;100140.81;;;19.14;100.00
20145;BME280;10233;50.814;6.590;2022-08-03T04:17:36;100138.09;;;19.14;100.00
20145;BME280;10233;50.814;6.590;2022-08-03T04:18:38;100140.03;;;19.18;100.00
20145;BME280;10233;50.814;6.590;2022-08-03T04:19:46;100134.91;;;19.17;100.00
20145;BME280;10233;50.814;6.590;2022-08-03T04:20:49;100139.75;;;19.15;100.00
20145;BME280;10233;50.814;6.590;2022-08-03T04:21:51;100144.31;;;19.14;100.00
20145;BME280;10233;50.814;6.590;2022-08-03T04:22:53;100141.19;;;19.22;100.00
20145;BME280;10233;50.814;6.590;2022-08-03T04:24:00;100147.53;;;19.11;100.00
20145;BME280;10233;50.814;6.590;2022-08-03T04:25:06;100149.22;;;19.17;100.00
20145;BME280;10233;50.814;6.590;2022-08-03T04:26:10;100149.22;;;19.17;100.00
20145;BME280;10233;50.814;6.590;2022-08-03T04:27:14;100154.28;;;19.14;100.00
20145;BME280;10233;50.814;6.590;2022-08-03T04:28:16;100154.03;;;19.15;100.00
20145;BME280;10233;50.814;6.590;2022-08-03T04:29:18;100152.94;;;19.16;100.00
20145;BME280;10233;50.814;6.590;2022-08-03T04:30:20;100150.00;;;19.18;100.00
20145;BME280;10233;50.814;6.590;2022-08-03T04:31:22;100147.66;;;19.26;100.00
20145;BME280;10233;50.814;6.590;2022-08-03T04:32:26;100146.91;;;19.36;100.00
20145;BME280;10233;50.814;6.590;2022-08-03T04:33:31;100149.41;;;19.47;100.00
20145;BME280;10233;50.814;6.590;2022-08-03T04:34:32;100150.00;;;19.59;100.00
20145;BME280;10233;50.814;6.590;2022-08-03T04:35:33;100157.63;;;19.72;100.00
20145;BME280;10233;50.814;6.590;2022-08-03T04:36:39;100159.53;;;19.77;100.00
20145;BME280;10233;50.814;6.590;2022-08-03T04:37:46;100154.16;;;19.87;100.00
20145;BME280;10233;50.814;6.590;2022-08-03T04:38:54;100151.78;;;19.95;100.00
20145;BME280;10233;50.814;6.590;2022-08-03T04:40:01;100155.00;;;19.92;100.00
20145;BME280;10233;50.814;6.590;2022-08-03T04:41:02;100167.72;;;20.02;100.00
20145;BME280;10233;50.814;6.590;2022-08-03T04:42:05;100160.69;;;20.06;100.00
20145;BME280;10233;50.814;6.590;2022-08-03T04:43:08;100158.34;;;20.14;100.00
20145;BME280;10233;50.814;6.590;2022-08-03T04:44:09;100161.06;;;20.19;100.00
20145;BME280;10233;50.814;6.590;2022-08-03T04:45:12;100156.47;;;20.25;100.00
20145;BME280;10233;50.814;6.590;2022-08-03T04:46:14;100155.69;;;20.24;100.00
20145;BME280;10233;50.814;6.590;2022-08-03T04:47:15;100156.75;;;20.28;100.00
20145;BME280;10233;50.814;6.590;2022-08-03T04:48:15;100160.81;;;20.36;100.00
20145;BME280;10233;50.814;6.590;2022-08-03T04:49:17;100158.94;;;20.41;100.00
20145;BME280;10233;50.814;6.590;2022-08-03T04:50:19;100155.72;;;20.44;100.00
20145;BME280;10233;50.814;6.590;2022-08-03T04:51:37;100155.72;;;20.59;100.00
20145;BME280;10233;50.814;6.590;2022-08-03T04:52:39;100148.69;;;20.63;100.00
20145;BME280;10233;50.814;6.590;2022-08-03T04:53:41;100160.31;;;20.69;100.00
20145;BME280;10233;50.814;6.590;2022-08-03T04:54:43;100160.88;;;20.71;100.00
20145;BME280;10233;50.814;6.590;2022-08-03T04:55:44;100162.22;;;20.68;100.00
20145;BME280;10233;50.814;6.590;2022-08-03T04:56:45;100162.22;;;20.68;100.00
20145;BME280;10233;50.814;6.590;2022-08-03T04:57:45;100153.53;;;20.66;100.00
20145;BME280;10233;50.814;6.590;2022-08-03T04:58:46;100165.44;;;20.60;100.00
20145;BME280;10233;50.814;6.590;2022-08-03T04:59:46;100150.56;;;20.58;100.00
20145;BME280;10233;50.814;6.590;2022-08-03T05:00:48;100169.22;;;20.59;100.00
20145;BME280;10233;50.814;6.590;2022-08-03T05:01:51;100165.72;;;20.64;100.00
20145;BME280;10233;50.814;6.590;2022-08-03T05:02:52;100163.28;;;20.62;100.00
20145;BME280;10233;50.814;6.590;2022-08-03T05:03:53;100163.81;;;20.59;100.00
20145;BME280;10233;50.814;6.590;2022-08-03T05:04:53;100168.69;;;20.62;100.00
20145;BME280;10233;50.814;6.590;2022-08-03T05:05:54;100163.81;;;20.59;100.00
20145;BME280;10233;50.814;6.590;2022-08-03T05:06:55;100165.72;;;20.64;100.00
20145;BME280;10233;50.814;6.590;2022-08-03T05:07:55;100165.19;;;20.67;100.00
20145;BME280;10233;50.814;6.590;2022-08-03T05:08:56;100176.00;;;20.62;100.00
20145;BME280;10233;50.814;6.590;2022-08-03T05:09:56;100163.56;;;20.56;100.00
20145;BME280;10233;50.814;6.590;2022-08-03T05:10:57;100161.91;;;20.50;100.00
20145;BME280;10233;50.814;6.590;2022-08-03T05:11:57;100158.41;;;20.39;100.00
20145;BME280;10233;50.814;6.590;2022-08-03T05:12:58;100166.78;;;20.38;100.00
20145;BME280;10233;50.814;6.590;2022-08-03T05:13:58;100167.28;;;20.35;100.00
20145;BME280;10233;50.814;6.590;2022-08-03T05:14:59;100167.03;;;20.31;100.00
20145;BME280;10233;50.814;6.590;2022-08-03T05:16:00;100169.19;;;20.29;100.00
20145;BME280;10233;50.814;6.590;2022-08-03T05:17:01;100171.06;;;20.29;100.00
20145;BME280;10233;50.814;6.590;2022-08-03T05:18:01;100168.63;;;20.27;100.00
20145;BME280;10233;50.814;6.590;2022-08-03T05:19:02;100162.13;;;20.18;100.00
20145;BME280;10233;50.814;6.590;2022-08-03T05:20:02;100164.81;;;20.18;100.00
20145;BME280;10233;50.814;6.590;2022-08-03T05:21:03;100167.53;;;20.18;100.00
20145;BME280;10233;50.814;6.590;2022-08-03T05:22:04;100166.34;;;19.99;100.00
20145;BME280;10233;50.814;6.590;2022-08-03T05:23:04;100173.94;;;20.02;100.00
20145;BME280;10233;50.814;6.590;2022-08-03T05:24:05;100171.19;;;19.87;100.00
20145;BME280;10233;50.814;6.590;2022-08-03T05:25:06;100176.03;;;19.85;100.00
20145;BME280;10233;50.814;6.590;2022-08-03T05:26:06;100175.50;;;19.93;100.00
20145;BME280;10233;50.814;6.590;2022-08-03T05:27:07;100170.06;;;19.83;100.00
20145;BME280;10233;50.814;6.590;2022-08-03T05:28:07;100176.56;;;19.87;100.00
20145;BME280;10233;50.814;6.590;2022-08-03T05:29:08;100173.34;;;19.85;100.00
20145;BME280;10233;50.814;6.590;2022-08-03T05:30:08;100172.25;;;19.86;100.00
20145;BME280;10233;50.814;6.590;2022-08-03T05:31:09;100172.28;;;19.96;100.00
20145;BME280;10233;50.814;6.590;2022-08-03T05:32:09;100172.81;;;19.93;100.00
20145;BME280;10233;50.814;6.590;2022-08-03T05:33:10;100175.78;;;19.97;100.00
20145;BME280;10233;50.814;6.590;2022-08-03T05:34:10;100180.72;;;20.10;100.00
20145;BME280;10233;50.814;6.590;2022-08-03T05:35:11;100166.97;;;20.11;100.00
20145;BME280;10233;50.814;6.590;2022-08-03T05:36:11;100171.28;;;20.07;100.00
20145;BME280;10233;50.814;6.590;2022-08-03T05:37:12;100178.06;;;20.20;100.00
20145;BME280;10233;50.814;6.590;2022-08-03T05:38:12;100171.03;;;20.14;100.00